createdAt,value
2018-10-18T00:00:44.355Z,101453.00
2018-10-18T00:03:12.282Z,101458.00
2018-10-18T00:05:40.148Z,101461.00
2018-10-18T00:08:08.092Z,101458.00
2018-10-18T00:10:36.038Z,101459.00
2018-10-18T00:13:04.352Z,101463.00
2018-10-18T00:15:32.251Z,101465.00
2018-10-18T00:18:00.480Z,101466.00
2018-10-18T00:20:28.920Z,101464.00
2018-10-18T00:22:56.808Z,101464.00
2018-10-18T00:25:24.708Z,101467.00
2018-10-18T00:27:52.591Z,101464.00
2018-10-18T00:30:20.539Z,101463.00
2018-10-18T00:32:48.410Z,101460.00
2018-10-18T00:35:16.299Z,101457.00
2018-10-18T00:37:44.216Z,101460.00
2018-10-18T00:40:12.868Z,101455.00
2018-10-18T00:42:41.221Z,101454.00
2018-10-18T00:45:09.919Z,101452.00
2018-10-18T00:47:37.867Z,101460.00
2018-10-18T00:50:07.084Z,101457.00
2018-10-18T00:52:34.951Z,101457.00
2018-10-18T00:55:02.840Z,101456.00
2018-10-18T00:57:30.736Z,101459.00
2018-10-18T00:59:58.994Z,101465.00
2018-10-18T01:02:26.852Z,101463.00
2018-10-18T01:04:54.744Z,101466.00
2018-10-18T01:07:22.650Z,101472.00
2018-10-18T01:09:50.556Z,101471.00
2018-10-18T01:12:18.566Z,101474.00
2018-10-18T01:14:46.400Z,101471.00
2018-10-18T01:17:14.303Z,101471.00
2018-10-18T01:19:42.212Z,101467.00
2018-10-18T01:22:10.143Z,101472.00
2018-10-18T01:24:38.027Z,101476.00
2018-10-18T01:27:06.615Z,101472.00
2018-10-18T01:29:34.556Z,101471.00
2018-10-18T01:32:02.547Z,101476.00
2018-10-18T01:34:30.428Z,101481.00
2018-10-18T01:36:58.321Z,101482.00
2018-10-18T01:39:26.227Z,101483.00
2018-10-18T01:41:54.161Z,101486.00
2018-10-18T01:44:22.050Z,101483.00
2018-10-18T01:46:50.007Z,101481.00
2018-10-18T01:49:17.930Z,101484.00
2018-10-18T01:51:45.823Z,101482.00
2018-10-18T01:54:13.793Z,101480.00
2018-10-18T01:56:41.655Z,101484.00
2018-10-18T01:59:09.558Z,101484.00
2018-10-18T02:01:37.486Z,101486.00
2018-10-18T02:04:05.998Z,101483.00
2018-10-18T02:06:33.982Z,101488.00
2018-10-18T02:09:01.917Z,101485.00
2018-10-18T02:11:29.840Z,101495.00
2018-10-18T02:13:57.750Z,101491.00
2018-10-18T02:16:25.691Z,101490.00
2018-10-18T02:18:53.610Z,101488.00
2018-10-18T02:21:21.567Z,101493.00
2018-10-18T02:23:49.487Z,101493.00
2018-10-18T02:26:17.387Z,101490.00
2018-10-18T02:28:45.306Z,101494.00
2018-10-18T02:31:13.216Z,101493.00
2018-10-18T02:33:41.100Z,101493.00
2018-10-18T02:36:09.091Z,101492.00
2018-10-18T02:38:36.956Z,101489.00
2018-10-18T02:41:04.884Z,101492.00
2018-10-18T02:43:32.790Z,101495.00
2018-10-18T02:46:00.691Z,101490.00
2018-10-18T02:48:28.588Z,101485.00
2018-10-18T02:50:56.495Z,101489.00
2018-10-18T02:53:24.399Z,101500.00
2018-10-18T02:55:52.290Z,101497.00
2018-10-18T02:58:20.187Z,101504.00
2018-10-18T03:00:48.088Z,101509.00
2018-10-18T03:03:15.982Z,101502.00
2018-10-18T03:05:43.926Z,101502.00
2018-10-18T03:08:11.833Z,101500.00
2018-10-18T03:10:39.741Z,101497.00
2018-10-18T03:13:07.663Z,101509.00
2018-10-18T03:15:35.588Z,101512.00
2018-10-18T03:18:03.523Z,101518.00
2018-10-18T03:20:31.438Z,101512.00
2018-10-18T03:22:59.346Z,101520.00
2018-10-18T03:25:27.256Z,101529.00
2018-10-18T03:27:55.211Z,101532.00
2018-10-18T03:30:23.180Z,101528.00
2018-10-18T03:32:51.096Z,101533.00
2018-10-18T03:35:19.003Z,101537.00
2018-10-18T03:37:46.939Z,101536.00
2018-10-18T03:40:14.855Z,101544.00
2018-10-18T03:42:42.760Z,101549.00
2018-10-18T03:45:10.695Z,101548.00
2018-10-18T03:47:38.649Z,101545.00
2018-10-18T03:50:06.596Z,101544.00
2018-10-18T03:52:34.502Z,101554.00
2018-10-18T03:55:02.464Z,101552.00
2018-10-18T03:57:30.532Z,101547.00
2018-10-18T03:59:58.465Z,101547.00
2018-10-18T04:02:26.400Z,101551.00
2018-10-18T04:04:54.307Z,101552.00
2018-10-18T04:07:22.264Z,101554.00
2018-10-18T04:09:50.165Z,101558.00
2018-10-18T04:12:18.211Z,101563.00
2018-10-18T04:14:46.002Z,101557.00
2018-10-18T04:17:13.904Z,101553.00
2018-10-18T04:19:41.803Z,101558.00
2018-10-18T04:22:09.728Z,101557.00
2018-10-18T04:24:37.632Z,101553.00
2018-10-18T04:27:05.548Z,101556.00
2018-10-18T04:29:33.557Z,101555.00
2018-10-18T04:32:01.469Z,101556.00
2018-10-18T04:34:29.407Z,101556.00
2018-10-18T04:36:57.360Z,101554.00
2018-10-18T04:39:25.278Z,101550.00
2018-10-18T04:41:53.224Z,101552.00
2018-10-18T04:44:21.107Z,101556.00
2018-10-18T04:46:49.066Z,101561.00
2018-10-18T04:49:16.972Z,101559.00
2018-10-18T04:51:44.896Z,101563.00
2018-10-18T04:54:12.823Z,101568.00
2018-10-18T04:56:40.791Z,101566.00
2018-10-18T04:59:08.647Z,101566.00
2018-10-18T05:01:36.569Z,101571.00
2018-10-18T05:04:04.708Z,101575.00
2018-10-18T05:06:32.770Z,101577.00
2018-10-18T05:09:00.951Z,101572.00
2018-10-18T05:11:28.949Z,101575.00
2018-10-18T05:13:56.799Z,101572.00
2018-10-18T05:16:24.827Z,101578.00
2018-10-18T05:18:52.767Z,101578.00
2018-10-18T05:21:20.668Z,101577.00
2018-10-18T05:23:48.662Z,101579.00
2018-10-18T05:26:16.523Z,101576.00
2018-10-18T05:28:44.448Z,101576.00
2018-10-18T05:31:12.386Z,101578.00
2018-10-18T05:33:40.339Z,101582.00
2018-10-18T05:36:08.290Z,101585.00
2018-10-18T05:38:36.220Z,101591.00
2018-10-18T05:41:04.183Z,101591.00
2018-10-18T05:43:32.120Z,101602.00
2018-10-18T05:46:00.034Z,101600.00
2018-10-18T05:48:27.956Z,101602.00
2018-10-18T05:50:55.880Z,101607.00
2018-10-18T05:53:23.792Z,101614.00
2018-10-18T05:55:51.724Z,101614.00
2018-10-18T05:58:19.655Z,101617.00
2018-10-18T06:00:47.977Z,101623.00
2018-10-18T06:03:15.863Z,101625.00
2018-10-18T06:05:43.767Z,101629.00
2018-10-18T06:08:11.705Z,101631.00
2018-10-18T06:10:51.133Z,101648.00
2018-10-18T06:13:19.116Z,101643.00
2018-10-18T06:15:47.004Z,101649.00
2018-10-18T06:18:14.915Z,101647.00
2018-10-18T06:20:42.835Z,101652.00
2018-10-18T06:23:10.828Z,101650.00
2018-10-18T06:25:38.691Z,101650.00
2018-10-18T06:28:06.887Z,101658.00
2018-10-18T06:30:34.802Z,101657.00
2018-10-18T06:33:02.778Z,101657.00
2018-10-18T06:35:30.787Z,101660.00
2018-10-18T06:37:58.732Z,101659.00
2018-10-18T06:40:26.647Z,101658.00
2018-10-18T06:42:54.661Z,101659.00
2018-10-18T06:45:22.508Z,101661.00
2018-10-18T06:47:50.539Z,101655.00
2018-10-18T06:50:19.733Z,101653.00
2018-10-18T06:52:47.611Z,101655.00
2018-10-18T06:55:15.588Z,101645.00
2018-10-18T06:57:44.025Z,101649.00
2018-10-18T07:00:16.151Z,101653.00
2018-10-18T07:02:44.644Z,101656.00
2018-10-18T07:05:13.770Z,101657.00
2018-10-18T07:07:41.987Z,101650.00
2018-10-18T07:10:09.939Z,101651.00
2018-10-18T07:12:38.459Z,101649.00
2018-10-18T07:15:07.109Z,101657.00
2018-10-18T07:17:35.477Z,101656.00
2018-10-18T07:20:03.403Z,101664.00
2018-10-18T07:22:31.332Z,101660.00
2018-10-18T07:24:59.271Z,101658.00
2018-10-18T07:27:27.185Z,101670.00
2018-10-18T07:29:55.159Z,101678.00
2018-10-18T07:32:23.221Z,101680.00
2018-10-18T07:34:51.134Z,101681.00
2018-10-18T07:37:19.048Z,101686.00
2018-10-18T07:39:46.969Z,101689.00
2018-10-18T07:42:14.961Z,101688.00
2018-10-18T07:44:42.839Z,101697.00
2018-10-18T07:47:10.744Z,101685.00
2018-10-18T07:49:38.640Z,101682.00
2018-10-18T07:52:06.912Z,101686.00
2018-10-18T07:54:34.836Z,101688.00
2018-10-18T07:57:02.751Z,101687.00
2018-10-18T07:59:30.680Z,101690.00
2018-10-18T08:01:58.585Z,101691.00
2018-10-18T08:04:26.505Z,101692.00
2018-10-18T08:06:54.458Z,101692.00
2018-10-18T08:09:22.360Z,101696.00
2018-10-18T08:11:50.331Z,101693.00
2018-10-18T08:14:18.313Z,101698.00
2018-10-18T08:16:46.240Z,101698.00
2018-10-18T08:19:14.162Z,101699.00
2018-10-18T08:21:42.104Z,101700.00
2018-10-18T08:24:10.022Z,101696.00
2018-10-18T08:26:37.939Z,101693.00
2018-10-18T08:29:05.872Z,101691.00
2018-10-18T08:31:33.860Z,101690.00
2018-10-18T08:34:01.703Z,101683.00
2018-10-18T08:36:29.660Z,101685.00
2018-10-18T08:38:57.576Z,101684.00
2018-10-18T08:41:25.499Z,101685.00
2018-10-18T08:43:53.469Z,101678.00
2018-10-18T08:46:21.361Z,101682.00
2018-10-18T08:48:49.308Z,101674.00
2018-10-18T08:51:17.253Z,101682.00
2018-10-18T08:53:45.200Z,101682.00
2018-10-18T08:56:13.128Z,101686.00
2018-10-18T08:58:41.161Z,101688.00
2018-10-18T09:01:09.175Z,101686.00
2018-10-18T09:03:37.103Z,101690.00
2018-10-18T09:06:05.155Z,101693.00
2018-10-18T09:08:33.091Z,101704.00
2018-10-18T09:11:01.039Z,101699.00
2018-10-18T09:13:28.956Z,101702.00
2018-10-18T09:15:56.922Z,101697.00
2018-10-18T09:18:24.792Z,101700.00
2018-10-18T09:20:52.729Z,101703.00
2018-10-18T09:23:20.659Z,101699.00
2018-10-18T09:25:48.615Z,101696.00
2018-10-18T09:28:16.548Z,101698.00
2018-10-18T09:30:44.474Z,101707.00
2018-10-18T09:33:12.400Z,101717.00
2018-10-18T09:35:40.352Z,101716.00
2018-10-18T09:38:08.282Z,101724.00
2018-10-18T09:40:36.195Z,101724.00
2018-10-18T09:43:04.225Z,101727.00
2018-10-18T09:45:32.082Z,101720.00
2018-10-18T09:48:00.156Z,101721.00
2018-10-18T09:50:28.060Z,101717.00
2018-10-18T09:52:56.028Z,101716.00
2018-10-18T09:55:23.927Z,101714.00
2018-10-18T09:57:51.797Z,101719.00
2018-10-18T10:01:26.830Z,101728.00
2018-10-18T10:03:54.746Z,101732.00
2018-10-18T10:06:22.686Z,101730.00
2018-10-18T10:08:50.599Z,101726.00
2018-10-18T10:11:18.496Z,101733.00
2018-10-18T10:13:46.472Z,101733.00
2018-10-18T10:16:15.160Z,101734.00
2018-10-18T10:18:43.096Z,101733.00
2018-10-18T10:21:11.007Z,101731.00
2018-10-18T10:23:38.920Z,101726.00
2018-10-18T10:26:06.866Z,101728.00
2018-10-18T10:28:34.776Z,101723.00
2018-10-18T10:31:02.736Z,101726.00
2018-10-18T10:33:30.642Z,101729.00
2018-10-18T10:35:58.587Z,101732.00
2018-10-18T10:38:26.517Z,101725.00
2018-10-18T10:40:54.500Z,101729.00
2018-10-18T10:43:22.346Z,101724.00
2018-10-18T10:45:50.350Z,101726.00
2018-10-18T10:48:18.229Z,101718.00
2018-10-18T10:50:46.101Z,101725.00
2018-10-18T10:53:14.003Z,101722.00
2018-10-18T10:55:41.940Z,101725.00
2018-10-18T10:58:09.933Z,101728.00
2018-10-18T11:01:26.155Z,101728.00
2018-10-18T11:03:57.343Z,101730.00
2018-10-18T11:06:25.516Z,101728.00
2018-10-18T11:08:53.753Z,101728.00
2018-10-18T11:11:22.198Z,101723.00
2018-10-18T11:13:50.338Z,101722.00
2018-10-18T11:16:18.271Z,101718.00
2018-10-18T11:18:46.219Z,101717.00
2018-10-18T11:21:15.555Z,101714.00
2018-10-18T11:23:43.411Z,101709.00
2018-10-18T11:26:11.465Z,101703.00
2018-10-18T11:28:39.298Z,101700.00
2018-10-18T11:31:07.255Z,101699.00
2018-10-18T11:33:35.183Z,101696.00
2018-10-18T11:36:03.258Z,101697.00
2018-10-18T11:38:31.099Z,101695.00
2018-10-18T11:40:59.012Z,101694.00
2018-10-18T11:43:26.956Z,101695.00
2018-10-18T11:45:54.889Z,101691.00
2018-10-18T11:48:22.820Z,101692.00
2018-10-18T11:50:50.750Z,101685.00
2018-10-18T11:53:18.706Z,101683.00
2018-10-18T11:55:46.637Z,101681.00
2018-10-18T11:58:14.887Z,101686.00
2018-10-18T12:00:43.675Z,101684.00
2018-10-18T12:03:11.607Z,101683.00
2018-10-18T12:05:39.588Z,101683.00
2018-10-18T12:08:07.643Z,101680.00
2018-10-18T12:10:35.455Z,101686.00
2018-10-18T12:13:03.388Z,101687.00
2018-10-18T12:15:31.335Z,101685.00
2018-10-18T12:17:59.284Z,101681.00
2018-10-18T12:20:27.234Z,101684.00
2018-10-18T12:22:55.191Z,101687.00
2018-10-18T12:25:23.066Z,101688.00
2018-10-18T12:27:51.004Z,101688.00
2018-10-18T12:30:18.927Z,101688.00
2018-10-18T12:32:46.868Z,101685.00
2018-10-18T12:35:14.850Z,101688.00
2018-10-18T12:37:42.815Z,101681.00
2018-10-18T12:40:10.783Z,101678.00
2018-10-18T12:42:40.495Z,101684.00
2018-10-18T12:45:09.602Z,101680.00
2018-10-18T12:47:37.504Z,101679.00
2018-10-18T12:50:05.746Z,101672.00
2018-10-18T12:52:33.672Z,101674.00
2018-10-18T12:55:01.716Z,101671.00
2018-10-18T12:57:29.651Z,101663.00
2018-10-18T12:59:57.572Z,101659.00
2018-10-18T13:02:25.517Z,101656.00
2018-10-18T13:04:53.403Z,101654.00
2018-10-18T13:07:21.315Z,101649.00
2018-10-18T13:09:49.241Z,101652.00
2018-10-18T13:12:17.336Z,101655.00
2018-10-18T13:14:45.129Z,101650.00
2018-10-18T13:17:13.054Z,101652.00
2018-10-18T13:19:40.988Z,101654.00
2018-10-18T13:22:08.911Z,101656.00
2018-10-18T13:24:37.109Z,101649.00
2018-10-18T13:27:05.187Z,101646.00
2018-10-18T13:29:33.116Z,101648.00
2018-10-18T13:32:01.099Z,101659.00
2018-10-18T13:34:29.003Z,101663.00
2018-10-18T13:36:56.956Z,101664.00
2018-10-18T13:39:24.939Z,101670.00
2018-10-18T13:41:52.935Z,101666.00
2018-10-18T13:44:20.812Z,101670.00
2018-10-18T13:46:48.758Z,101669.00
2018-10-18T13:49:16.686Z,101666.00
2018-10-18T13:51:44.600Z,101668.00
2018-10-18T13:54:12.590Z,101671.00
2018-10-18T13:56:40.520Z,101665.00
2018-10-18T13:59:19.746Z,101665.00
2018-10-18T14:01:47.600Z,101654.00
2018-10-18T14:04:15.529Z,101651.00
2018-10-18T14:06:43.452Z,101654.00
2018-10-18T14:09:11.367Z,101654.00
2018-10-18T14:11:39.292Z,101649.00
2018-10-18T14:14:07.241Z,101649.00
2018-10-18T14:16:35.147Z,101653.00
2018-10-18T14:19:03.051Z,101649.00
2018-10-18T14:21:31.044Z,101647.00
2018-10-18T14:23:58.959Z,101656.00
2018-10-18T14:26:26.883Z,101649.00
2018-10-18T14:28:54.863Z,101643.00
2018-10-18T14:31:22.736Z,101642.00
2018-10-18T14:33:50.668Z,101652.00
2018-10-18T14:36:18.641Z,101648.00
2018-10-18T14:38:46.649Z,101649.00
2018-10-18T14:41:14.507Z,101647.00
2018-10-18T14:43:42.480Z,101647.00
2018-10-18T14:46:10.376Z,101650.00
2018-10-18T14:48:38.517Z,101644.00
2018-10-18T14:51:06.480Z,101644.00
2018-10-18T14:53:34.382Z,101641.00
2018-10-18T14:56:02.336Z,101640.00
2018-10-18T14:58:30.225Z,101645.00
2018-10-18T15:00:58.207Z,101643.00
2018-10-18T15:03:26.164Z,101637.00
2018-10-18T15:05:54.075Z,101640.00
2018-10-18T15:08:21.981Z,101647.00
2018-10-18T15:10:49.891Z,101648.00
2018-10-18T15:13:17.816Z,101652.00
2018-10-18T15:15:45.747Z,101653.00
2018-10-18T15:18:13.652Z,101652.00
2018-10-18T15:20:41.567Z,101652.00
2018-10-18T15:23:09.568Z,101649.00
2018-10-18T15:25:37.556Z,101645.00
2018-10-18T15:28:05.361Z,101646.00
2018-10-18T15:30:33.272Z,101641.00
2018-10-18T15:33:01.232Z,101643.00
2018-10-18T15:35:29.123Z,101639.00
2018-10-18T15:37:57.131Z,101636.00
2018-10-18T15:40:24.955Z,101637.00
2018-10-18T15:42:53.154Z,101643.00
2018-10-18T15:45:21.233Z,101643.00
2018-10-18T15:47:49.121Z,101644.00
2018-10-18T15:50:16.889Z,101637.00
2018-10-18T15:52:44.798Z,101640.00
2018-10-18T15:55:12.711Z,101642.00
2018-10-18T15:57:40.615Z,101641.00
2018-10-18T16:00:09.746Z,101642.00
2018-10-18T16:02:37.600Z,101641.00
2018-10-18T16:05:05.892Z,101644.00
2018-10-18T16:07:33.699Z,101645.00
2018-10-18T16:10:01.648Z,101649.00
2018-10-18T16:12:29.630Z,101652.00
2018-10-18T16:14:57.535Z,101649.00
2018-10-18T16:17:25.437Z,101658.00
2018-10-18T16:19:53.456Z,101660.00
2018-10-18T16:22:21.358Z,101663.00
2018-10-18T16:24:49.338Z,101666.00
2018-10-18T16:27:17.264Z,101664.00
2018-10-18T16:29:45.181Z,101666.00
2018-10-18T16:32:13.214Z,101669.00
2018-10-18T16:34:41.048Z,101672.00
2018-10-18T16:37:08.950Z,101673.00
2018-10-18T16:39:36.888Z,101677.00
2018-10-18T16:42:05.302Z,101676.00
2018-10-18T16:44:33.084Z,101680.00
2018-10-18T16:47:01.020Z,101671.00
2018-10-18T16:49:28.939Z,101677.00
2018-10-18T16:51:56.869Z,101684.00
2018-10-18T16:54:24.873Z,101686.00
2018-10-18T16:56:52.702Z,101687.00
2018-10-18T16:59:20.616Z,101691.00
2018-10-18T17:01:48.561Z,101688.00
2018-10-18T17:04:17.010Z,101693.00
2018-10-18T17:06:44.832Z,101693.00
2018-10-18T17:09:12.744Z,101694.00
2018-10-18T17:11:40.700Z,101696.00
2018-10-18T17:14:08.664Z,101699.00
2018-10-18T17:16:36.563Z,101697.00
2018-10-18T17:19:04.767Z,101702.00
2018-10-18T17:21:32.688Z,101703.00
2018-10-18T17:24:00.700Z,101706.00
2018-10-18T17:26:28.624Z,101710.00
2018-10-18T17:28:56.572Z,101712.00
2018-10-18T17:31:24.790Z,101714.00
2018-10-18T17:33:52.698Z,101711.00
2018-10-18T17:36:20.697Z,101712.00
2018-10-18T17:38:48.539Z,101722.00
2018-10-18T17:41:16.452Z,101715.00
2018-10-18T17:43:44.399Z,101716.00
2018-10-18T17:46:12.381Z,101721.00
2018-10-18T17:48:40.256Z,101717.00
2018-10-18T17:51:08.183Z,101722.00
2018-10-18T17:53:36.143Z,101719.00
2018-10-18T17:56:04.084Z,101717.00
2018-10-18T17:58:31.969Z,101721.00
2018-10-18T18:00:59.894Z,101721.00
2018-10-18T18:03:27.821Z,101722.00
2018-10-18T18:05:55.857Z,101726.00
2018-10-18T18:08:23.692Z,101729.00
2018-10-18T18:10:51.606Z,101728.00
2018-10-18T18:13:19.591Z,101732.00
2018-10-18T18:15:47.585Z,101731.00
2018-10-18T18:18:15.435Z,101731.00
2018-10-18T18:20:43.381Z,101728.00
2018-10-18T18:23:11.288Z,101727.00
2018-10-18T18:25:39.279Z,101728.00
2018-10-18T18:28:07.200Z,101731.00
2018-10-18T18:30:35.124Z,101731.00
2018-10-18T18:33:03.103Z,101738.00
2018-10-18T18:35:31.015Z,101737.00
2018-10-18T18:37:58.975Z,101735.00
2018-10-18T18:40:26.893Z,101739.00
2018-10-18T18:42:54.843Z,101745.00
2018-10-18T18:45:24.926Z,101752.00
2018-10-18T18:47:53.063Z,101754.00
2018-10-18T18:50:20.981Z,101757.00
2018-10-18T18:52:48.931Z,101755.00
2018-10-18T18:55:16.843Z,101762.00
2018-10-18T18:57:44.791Z,101766.00
2018-10-18T19:00:12.805Z,101770.00
2018-10-18T19:02:40.647Z,101774.00
2018-10-18T19:05:09.159Z,101774.00
2018-10-18T19:07:37.104Z,101776.00
2018-10-18T19:10:05.566Z,101781.00
2018-10-18T19:12:33.501Z,101786.00
2018-10-18T19:15:01.422Z,101788.00
2018-10-18T19:17:29.407Z,101788.00
2018-10-18T19:19:57.324Z,101790.00
2018-10-18T19:22:25.242Z,101790.00
2018-10-18T19:24:53.607Z,101796.00
2018-10-18T19:27:21.555Z,101797.00
2018-10-18T19:29:49.541Z,101792.00
2018-10-18T19:32:17.456Z,101795.00
2018-10-18T19:34:45.789Z,101799.00
2018-10-18T19:37:13.747Z,101799.00
2018-10-18T19:39:41.660Z,101802.00
2018-10-18T19:42:09.571Z,101807.00
2018-10-18T19:44:37.516Z,101802.00
2018-10-18T19:47:05.484Z,101802.00
2018-10-18T19:49:33.408Z,101807.00
2018-10-18T19:52:01.352Z,101810.00
2018-10-18T19:54:29.230Z,101805.00
2018-10-18T19:56:57.166Z,101805.00
2018-10-18T19:59:25.104Z,101810.00
2018-10-18T20:01:53.035Z,101811.00
2018-10-18T20:04:20.959Z,101817.00
2018-10-18T20:06:48.873Z,101819.00
2018-10-18T20:09:17.275Z,101819.00
2018-10-18T20:11:45.294Z,101816.00
2018-10-18T20:14:13.217Z,101820.00
2018-10-18T20:16:41.170Z,101823.00
2018-10-18T20:19:09.091Z,101828.00
2018-10-18T20:21:37.340Z,101829.00
2018-10-18T20:24:05.918Z,101838.00
2018-10-18T20:26:33.879Z,101842.00
2018-10-18T20:29:01.747Z,101840.00
2018-10-18T20:31:29.655Z,101841.00
2018-10-18T20:33:57.564Z,101842.00
2018-10-18T20:36:25.495Z,101842.00
2018-10-18T20:38:53.547Z,101838.00
2018-10-18T20:41:21.536Z,101841.00
2018-10-18T20:43:49.481Z,101845.00
2018-10-18T20:46:17.413Z,101849.00
2018-10-18T20:48:45.343Z,101848.00
2018-10-18T20:51:13.340Z,101846.00
2018-10-18T20:53:41.205Z,101850.00
2018-10-18T20:56:09.188Z,101851.00
2018-10-18T20:58:37.176Z,101846.00
2018-10-18T21:01:06.000Z,101845.00
2018-10-18T21:03:33.931Z,101841.00
2018-10-18T21:06:01.904Z,101841.00
2018-10-18T21:08:29.803Z,101843.00
2018-10-18T21:10:57.798Z,101848.00
2018-10-18T21:13:26.268Z,101848.00
2018-10-18T21:15:54.277Z,101853.00
2018-10-18T21:18:22.245Z,101844.00
2018-10-18T21:20:50.169Z,101845.00
2018-10-18T21:23:18.098Z,101847.00
2018-10-18T21:25:46.061Z,101849.00
2018-10-18T21:28:13.991Z,101848.00
2018-10-18T21:30:41.913Z,101846.00
2018-10-18T21:33:09.952Z,101842.00
2018-10-18T21:35:37.791Z,101848.00
2018-10-18T21:38:05.953Z,101847.00
2018-10-18T21:40:34.043Z,101843.00
2018-10-18T21:43:01.979Z,101848.00
2018-10-18T21:45:29.952Z,101845.00
2018-10-18T21:47:58.020Z,101839.00
2018-10-18T21:50:25.956Z,101834.00
2018-10-18T21:52:53.905Z,101841.00
2018-10-18T21:55:21.874Z,101842.00
2018-10-18T21:57:49.800Z,101837.00
2018-10-18T22:00:18.076Z,101839.00
2018-10-18T22:02:46.743Z,101839.00
2018-10-18T22:05:15.273Z,101831.00
2018-10-18T22:07:43.726Z,101835.00
2018-10-18T22:10:12.388Z,101835.00
2018-10-18T22:12:40.323Z,101832.00
2018-10-18T22:15:09.485Z,101834.00
2018-10-18T22:17:37.372Z,101834.00
2018-10-18T22:20:06.404Z,101833.00
2018-10-18T22:22:34.331Z,101830.00
2018-10-18T22:25:02.323Z,101823.00
2018-10-18T22:27:30.431Z,101821.00
2018-10-18T22:29:58.360Z,101819.00
2018-10-18T22:32:26.416Z,101818.00
2018-10-18T22:34:54.330Z,101820.00
2018-10-18T22:37:22.274Z,101818.00
2018-10-18T22:39:50.184Z,101826.00
2018-10-18T22:42:18.101Z,101826.00
2018-10-18T22:44:46.023Z,101821.00
2018-10-18T22:47:13.956Z,101817.00
2018-10-18T22:49:41.872Z,101825.00
2018-10-18T22:52:09.822Z,101826.00
2018-10-18T22:54:37.771Z,101827.00
2018-10-18T22:57:05.924Z,101828.00
2018-10-18T22:59:33.812Z,101830.00
2018-10-18T23:02:01.740Z,101830.00
2018-10-18T23:04:29.700Z,101830.00
2018-10-18T23:06:57.622Z,101838.00
2018-10-18T23:09:25.598Z,101840.00
2018-10-18T23:11:53.498Z,101839.00
2018-10-18T23:14:21.444Z,101839.00
2018-10-18T23:16:49.529Z,101837.00
2018-10-18T23:19:17.443Z,101835.00
2018-10-18T23:21:45.364Z,101837.00
2018-10-18T23:24:13.327Z,101838.00
2018-10-18T23:26:41.291Z,101835.00
2018-10-18T23:29:09.319Z,101832.00
2018-10-18T23:31:37.179Z,101831.00
2018-10-18T23:34:05.536Z,101823.00
2018-10-18T23:36:33.463Z,101823.00
2018-10-18T23:39:01.434Z,101828.00
2018-10-18T23:41:29.336Z,101834.00
2018-10-18T23:43:57.287Z,101825.00
2018-10-18T23:46:25.192Z,101826.00
2018-10-18T23:48:53.144Z,101823.00
2018-10-18T23:51:21.093Z,101822.00
2018-10-18T23:53:49.024Z,101819.00
2018-10-18T23:56:16.940Z,101820.00
2018-10-18T23:58:45.196Z,101823.00
